sensor_id;sensor_type;location;lat;lon;timestamp;temperature;humidity
69162;DHT22;56269;51.738;21.652;2022-09-12T00:00:29;10.17;98.73
69162;DHT22;56269;51.738;21.652;2022-09-12T00:03:16;10.16;98.82
69162;DHT22;56269;51.738;21.652;2022-09-12T00:05:44;10.19;98.70
69162;DHT22;56269;51.738;21.652;2022-09-12T00:08:11;10.19;98.93
69162;DHT22;56269;51.738;21.652;2022-09-12T00:10:41;10.20;98.63
69162;DHT22;56269;51.738;21.652;2022-09-12T00:13:09;10.16;99.24
69162;DHT22;56269;51.738;21.652;2022-09-12T00:15:40;10.19;99.00
69162;DHT22;56269;51.738;21.652;2022-09-12T00:18:09;10.20;98.88
69162;DHT22;56269;51.738;21.652;2022-09-12T00:20:44;10.20;99.23
69162;DHT22;56269;51.738;21.652;2022-09-12T00:23:11;10.21;99.04
69162;DHT22;56269;51.738;21.652;2022-09-12T00:25:44;10.24;98.73
69162;DHT22;56269;51.738;21.652;2022-09-12T00:28:13;10.24;98.81
69162;DHT22;56269;51.738;21.652;2022-09-12T00:30:45;10.29;98.58
69162;DHT22;56269;51.738;21.652;2022-09-12T00:33:11;10.28;98.96
69162;DHT22;56269;51.738;21.652;2022-09-12T00:35:48;10.28;98.62
69162;DHT22;56269;51.738;21.652;2022-09-12T00:38:15;10.33;98.53
69162;DHT22;56269;51.738;21.652;2022-09-12T00:40:42;10.34;98.55
69162;DHT22;56269;51.738;21.652;2022-09-12T00:43:33;10.36;98.39
69162;DHT22;56269;51.738;21.652;2022-09-12T00:46:06;10.34;98.36
69162;DHT22;56269;51.738;21.652;2022-09-12T00:48:41;10.36;97.99
69162;DHT22;56269;51.738;21.652;2022-09-12T00:51:09;10.36;98.47
69162;DHT22;56269;51.738;21.652;2022-09-12T00:53:37;10.39;98.26
69162;DHT22;56269;51.738;21.652;2022-09-12T00:56:03;10.37;98.08
69162;DHT22;56269;51.738;21.652;2022-09-12T00:58:35;10.36;98.27
69162;DHT22;56269;51.738;21.652;2022-09-12T01:01:03;10.34;98.64
69162;DHT22;56269;51.738;21.652;2022-09-12T01:03:29;10.34;98.67
69162;DHT22;56269;51.738;21.652;2022-09-12T01:06:18;10.33;98.55
69162;DHT22;56269;51.738;21.652;2022-09-12T01:08:46;10.33;98.67
69162;DHT22;56269;51.738;21.652;2022-09-12T01:11:14;10.33;98.74
69162;DHT22;56269;51.738;21.652;2022-09-12T01:13:41;10.36;98.68
69162;DHT22;56269;51.738;21.652;2022-09-12T01:16:08;10.39;97.86
69162;DHT22;56269;51.738;21.652;2022-09-12T01:27:55;10.39;98.28
69162;DHT22;56269;51.738;21.652;2022-09-12T01:39:13;10.39;98.37
69162;DHT22;56269;51.738;21.652;2022-09-12T01:41:58;10.43;97.63
69162;DHT22;56269;51.738;21.652;2022-09-12T01:47:45;10.40;98.02
69162;DHT22;56269;51.738;21.652;2022-09-12T01:50:21;10.37;98.21
69162;DHT22;56269;51.738;21.652;2022-09-12T01:52:56;10.36;98.37
69162;DHT22;56269;51.738;21.652;2022-09-12T01:55:25;10.37;98.01
69162;DHT22;56269;51.738;21.652;2022-09-12T01:57:53;10.36;98.16
69162;DHT22;56269;51.738;21.652;2022-09-12T02:00:22;10.36;97.76
69162;DHT22;56269;51.738;21.652;2022-09-12T02:02:57;10.40;97.73
69162;DHT22;56269;51.738;21.652;2022-09-12T02:05:33;10.36;98.20
69162;DHT22;56269;51.738;21.652;2022-09-12T02:10:42;10.40;97.41
69162;DHT22;56269;51.738;21.652;2022-09-12T02:13:14;10.43;97.42
69162;DHT22;56269;51.738;21.652;2022-09-12T02:15:48;10.44;97.14
69162;DHT22;56269;51.738;21.652;2022-09-12T02:18:16;10.41;97.74
69162;DHT22;56269;51.738;21.652;2022-09-12T02:20:46;10.41;97.29
69162;DHT22;56269;51.738;21.652;2022-09-12T02:23:17;10.41;97.10
69162;DHT22;56269;51.738;21.652;2022-09-12T02:25:47;10.40;97.63
69162;DHT22;56269;51.738;21.652;2022-09-12T02:28:40;10.39;97.35
69162;DHT22;56269;51.738;21.652;2022-09-12T02:36:43;10.40;97.05
69162;DHT22;56269;51.738;21.652;2022-09-12T02:39:11;10.40;96.88
69162;DHT22;56269;51.738;21.652;2022-09-12T02:41:37;10.41;96.93
69162;DHT22;56269;51.738;21.652;2022-09-12T02:44:04;10.40;96.97
69162;DHT22;56269;51.738;21.652;2022-09-12T02:46:35;10.36;97.58
69162;DHT22;56269;51.738;21.652;2022-09-12T02:49:03;10.33;97.84
69162;DHT22;56269;51.738;21.652;2022-09-12T02:51:29;10.32;97.41
69162;DHT22;56269;51.738;21.652;2022-09-12T02:53:55;10.37;97.11
69162;DHT22;56269;51.738;21.652;2022-09-12T02:56:29;10.36;97.08
69162;DHT22;56269;51.738;21.652;2022-09-12T02:59:04;10.37;97.31
69162;DHT22;56269;51.738;21.652;2022-09-12T03:04:12;10.37;96.94
69162;DHT22;56269;51.738;21.652;2022-09-12T03:06:49;10.34;97.16
69162;DHT22;56269;51.738;21.652;2022-09-12T03:09:29;10.32;97.65
69162;DHT22;56269;51.738;21.652;2022-09-12T03:12:30;10.32;97.19
69162;DHT22;56269;51.738;21.652;2022-09-12T03:17:57;10.29;97.30
69162;DHT22;56269;51.738;21.652;2022-09-12T03:23:02;10.28;97.03
69162;DHT22;56269;51.738;21.652;2022-09-12T03:25:39;10.29;97.09
69162;DHT22;56269;51.738;21.652;2022-09-12T03:28:13;10.28;97.38
69162;DHT22;56269;51.738;21.652;2022-09-12T03:30:47;10.28;97.01
69162;DHT22;56269;51.738;21.652;2022-09-12T03:33:22;10.26;97.43
69162;DHT22;56269;51.738;21.652;2022-09-12T03:35:50;10.30;96.47
69162;DHT22;56269;51.738;21.652;2022-09-12T03:38:17;10.29;97.12
69162;DHT22;56269;51.738;21.652;2022-09-12T03:40:44;10.29;97.64
69162;DHT22;56269;51.738;21.652;2022-09-12T03:43:11;10.29;97.33
69162;DHT22;56269;51.738;21.652;2022-09-12T03:45:37;10.29;97.02
69162;DHT22;56269;51.738;21.652;2022-09-12T03:48:04;10.26;97.11
69162;DHT22;56269;51.738;21.652;2022-09-12T03:50:31;10.26;97.01
69162;DHT22;56269;51.738;21.652;2022-09-12T03:52:59;10.26;96.67
69162;DHT22;56269;51.738;21.652;2022-09-12T03:55:25;10.28;96.94
69162;DHT22;56269;51.738;21.652;2022-09-12T03:57:52;10.26;97.38
69162;DHT22;56269;51.738;21.652;2022-09-12T04:00:19;10.26;97.30
69162;DHT22;56269;51.738;21.652;2022-09-12T04:02:45;10.26;96.73
69162;DHT22;56269;51.738;21.652;2022-09-12T04:05:11;10.29;96.58
69162;DHT22;56269;51.738;21.652;2022-09-12T04:07:37;10.26;96.84
69162;DHT22;56269;51.738;21.652;2022-09-12T04:10:03;10.23;97.13
69162;DHT22;56269;51.738;21.652;2022-09-12T04:12:29;10.21;97.61
69162;DHT22;56269;51.738;21.652;2022-09-12T04:14:55;10.20;97.78
69162;DHT22;56269;51.738;21.652;2022-09-12T04:17:21;10.16;98.01
69162;DHT22;56269;51.738;21.652;2022-09-12T04:19:47;10.12;98.76
69162;DHT22;56269;51.738;21.652;2022-09-12T04:22:14;10.06;98.94
69162;DHT22;56269;51.738;21.652;2022-09-12T04:24:39;10.02;99.20
69162;DHT22;56269;51.738;21.652;2022-09-12T04:27:05;10.00;99.47
69162;DHT22;56269;51.738;21.652;2022-09-12T04:29:32;9.95;99.80
69162;DHT22;56269;51.738;21.652;2022-09-12T04:31:57;9.93;99.99
69162;DHT22;56269;51.738;21.652;2022-09-12T04:34:24;9.88;99.99
69162;DHT22;56269;51.738;21.652;2022-09-12T04:36:50;9.86;99.99
69162;DHT22;56269;51.738;21.652;2022-09-12T04:39:16;9.82;99.99
69162;DHT22;56269;51.738;21.652;2022-09-12T04:41:42;9.81;99.99
69162;DHT22;56269;51.738;21.652;2022-09-12T04:44:12;9.77;99.99
69162;DHT22;56269;51.738;21.652;2022-09-12T04:46:41;9.78;99.99
69162;DHT22;56269;51.738;21.652;2022-09-12T04:49:07;9.78;99.99
69162;DHT22;56269;51.738;21.652;2022-09-12T04:51:35;9.74;99.99
69162;DHT22;56269;51.738;21.652;2022-09-12T04:54:04;9.75;99.99
69162;DHT22;56269;51.738;21.652;2022-09-12T04:56:30;9.79;99.99
69162;DHT22;56269;51.738;21.652;2022-09-12T04:58:58;9.81;99.99
69162;DHT22;56269;51.738;21.652;2022-09-12T05:01:26;9.78;99.99
69162;DHT22;56269;51.738;21.652;2022-09-12T05:03:54;9.81;99.99
69162;DHT22;56269;51.738;21.652;2022-09-12T05:06:26;9.79;99.99
69162;DHT22;56269;51.738;21.652;2022-09-12T05:08:53;9.79;99.99
69162;DHT22;56269;51.738;21.652;2022-09-12T05:11:26;9.81;99.99
69162;DHT22;56269;51.738;21.652;2022-09-12T05:13:53;9.81;99.99
69162;DHT22;56269;51.738;21.652;2022-09-12T05:16:19;9.83;99.99
69162;DHT22;56269;51.738;21.652;2022-09-12T05:18:46;9.88;99.99
69162;DHT22;56269;51.738;21.652;2022-09-12T05:21:15;9.86;99.99
69162;DHT22;56269;51.738;21.652;2022-09-12T05:23:41;9.85;99.99
69162;DHT22;56269;51.738;21.652;2022-09-12T05:26:12;9.89;99.99
69162;DHT22;56269;51.738;21.652;2022-09-12T05:28:38;9.83;99.99
69162;DHT22;56269;51.738;21.652;2022-09-12T05:33:37;9.86;99.99
69162;DHT22;56269;51.738;21.652;2022-09-12T05:36:05;9.89;99.99
69162;DHT22;56269;51.738;21.652;2022-09-12T05:38:35;9.92;99.99
69162;DHT22;56269;51.738;21.652;2022-09-12T05:41:10;9.92;99.99
69162;DHT22;56269;51.738;21.652;2022-09-12T05:43:37;9.89;99.99
69162;DHT22;56269;51.738;21.652;2022-09-12T05:46:08;9.96;99.99
69162;DHT22;56269;51.738;21.652;2022-09-12T05:48:38;9.95;99.99
69162;DHT22;56269;51.738;21.652;2022-09-12T05:51:07;9.98;99.99
69162;DHT22;56269;51.738;21.652;2022-09-12T05:53:35;9.99;99.99
69162;DHT22;56269;51.738;21.652;2022-09-12T05:56:10;10.03;99.99
69162;DHT22;56269;51.738;21.652;2022-09-12T05:58:39;10.03;99.99
69162;DHT22;56269;51.738;21.652;2022-09-12T06:01:14;10.06;99.99
69162;DHT22;56269;51.738;21.652;2022-09-12T06:03:42;10.08;99.99
69162;DHT22;56269;51.738;21.652;2022-09-12T06:06:10;10.09;99.99
69162;DHT22;56269;51.738;21.652;2022-09-12T06:08:41;10.14;99.99
69162;DHT22;56269;51.738;21.652;2022-09-12T06:11:10;10.16;99.99
69162;DHT22;56269;51.738;21.652;2022-09-12T06:13:37;10.24;99.99
69162;DHT22;56269;51.738;21.652;2022-09-12T06:16:18;10.19;99.99
69162;DHT22;56269;51.738;21.652;2022-09-12T06:18:53;10.20;99.99
69162;DHT22;56269;51.738;21.652;2022-09-12T06:21:20;10.21;99.99
69162;DHT22;56269;51.738;21.652;2022-09-12T06:23:47;10.20;99.99
69162;DHT22;56269;51.738;21.652;2022-09-12T06:26:17;10.20;99.99
69162;DHT22;56269;51.738;21.652;2022-09-12T06:28:45;10.21;99.99
69162;DHT22;56269;51.738;21.652;2022-09-12T06:31:18;10.13;99.99
69162;DHT22;56269;51.738;21.652;2022-09-12T06:33:47;10.13;99.99
69162;DHT22;56269;51.738;21.652;2022-09-12T06:36:17;10.10;99.99
69162;DHT22;56269;51.738;21.652;2022-09-12T06:38:44;10.08;99.99
69162;DHT22;56269;51.738;21.652;2022-09-12T06:41:13;10.08;99.99
69162;DHT22;56269;51.738;21.652;2022-09-12T06:43:40;10.08;99.99
69162;DHT22;56269;51.738;21.652;2022-09-12T06:46:08;10.06;99.99
69162;DHT22;56269;51.738;21.652;2022-09-12T06:48:35;10.08;99.99
69162;DHT22;56269;51.738;21.652;2022-09-12T06:51:03;10.09;99.99
69162;DHT22;56269;51.738;21.652;2022-09-12T06:53:31;10.12;99.99
69162;DHT22;56269;51.738;21.652;2022-09-12T06:56:02;10.12;99.99
69162;DHT22;56269;51.738;21.652;2022-09-12T06:58:29;10.10;99.99
69162;DHT22;56269;51.738;21.652;2022-09-12T07:01:16;10.16;99.99
69162;DHT22;56269;51.738;21.652;2022-09-12T07:03:46;10.16;99.99
69162;DHT22;56269;51.738;21.652;2022-09-12T07:06:15;10.14;99.99
69162;DHT22;56269;51.738;21.652;2022-09-12T07:08:41;10.13;99.99
69162;DHT22;56269;51.738;21.652;2022-09-12T07:11:10;10.17;99.99
69162;DHT22;56269;51.738;21.652;2022-09-12T07:13:40;10.16;99.99
69162;DHT22;56269;51.738;21.652;2022-09-12T07:16:07;10.19;99.99
69162;DHT22;56269;51.738;21.652;2022-09-12T07:18:34;10.20;99.99
69162;DHT22;56269;51.738;21.652;2022-09-12T07:21:05;10.19;99.99
69162;DHT22;56269;51.738;21.652;2022-09-12T07:23:50;10.19;99.99
69162;DHT22;56269;51.738;21.652;2022-09-12T07:26:34;10.16;99.99
69162;DHT22;56269;51.738;21.652;2022-09-12T07:29:01;10.17;99.99
69162;DHT22;56269;51.738;21.652;2022-09-12T07:31:27;10.21;99.99
69162;DHT22;56269;51.738;21.652;2022-09-12T07:33:54;10.28;99.99
69162;DHT22;56269;51.738;21.652;2022-09-12T07:36:22;10.21;99.99
69162;DHT22;56269;51.738;21.652;2022-09-12T07:38:56;10.24;99.99
69162;DHT22;56269;51.738;21.652;2022-09-12T07:41:25;10.26;99.99
69162;DHT22;56269;51.738;21.652;2022-09-12T07:43:52;10.30;99.99
69162;DHT22;56269;51.738;21.652;2022-09-12T07:46:19;10.30;99.99
69162;DHT22;56269;51.738;21.652;2022-09-12T07:48:49;10.34;99.99
69162;DHT22;56269;51.738;21.652;2022-09-12T07:51:16;10.37;99.99
69162;DHT22;56269;51.738;21.652;2022-09-12T07:53:43;10.47;99.99
69162;DHT22;56269;51.738;21.652;2022-09-12T07:56:11;10.59;99.99
69162;DHT22;56269;51.738;21.652;2022-09-12T07:58:38;10.57;99.99
69162;DHT22;56269;51.738;21.652;2022-09-12T08:01:10;10.64;99.99
69162;DHT22;56269;51.738;21.652;2022-09-12T08:03:41;10.67;99.99
69162;DHT22;56269;51.738;21.652;2022-09-12T08:08:33;10.80;99.99
69162;DHT22;56269;51.738;21.652;2022-09-12T08:11:01;10.85;99.99
69162;DHT22;56269;51.738;21.652;2022-09-12T08:13:28;10.85;99.99
69162;DHT22;56269;51.738;21.652;2022-09-12T08:15:58;10.88;99.99
69162;DHT22;56269;51.738;21.652;2022-09-12T08:18:28;10.88;99.99
69162;DHT22;56269;51.738;21.652;2022-09-12T08:20:56;10.87;99.99
69162;DHT22;56269;51.738;21.652;2022-09-12T08:23:22;10.88;99.99
69162;DHT22;56269;51.738;21.652;2022-09-12T08:25:51;10.94;99.99
69162;DHT22;56269;51.738;21.652;2022-09-12T08:28:19;11.01;99.45
69162;DHT22;56269;51.738;21.652;2022-09-12T08:30:45;11.05;99.63
69162;DHT22;56269;51.738;21.652;2022-09-12T08:33:11;11.15;99.99
69162;DHT22;56269;51.738;21.652;2022-09-12T08:35:37;11.07;99.26
69162;DHT22;56269;51.738;21.652;2022-09-12T08:38:03;11.15;99.36
69162;DHT22;56269;51.738;21.652;2022-09-12T08:40:32;11.15;98.71
69162;DHT22;56269;51.738;21.652;2022-09-12T08:43:34;11.08;98.96
69162;DHT22;56269;51.738;21.652;2022-09-12T08:46:21;11.10;99.67
69162;DHT22;56269;51.738;21.652;2022-09-12T08:48:47;11.05;98.66
69162;DHT22;56269;51.738;21.652;2022-09-12T08:51:16;11.04;99.54
69162;DHT22;56269;51.738;21.652;2022-09-12T08:53:46;10.98;99.48
69162;DHT22;56269;51.738;21.652;2022-09-12T08:56:13;11.00;99.28
69162;DHT22;56269;51.738;21.652;2022-09-12T08:58:42;10.98;99.50
69162;DHT22;56269;51.738;21.652;2022-09-12T09:03:49;11.00;99.99
69162;DHT22;56269;51.738;21.652;2022-09-12T09:15:38;11.04;98.79
69162;DHT22;56269;51.738;21.652;2022-09-12T09:18:03;11.08;99.48
69162;DHT22;56269;51.738;21.652;2022-09-12T09:23:19;11.15;99.07
69162;DHT22;56269;51.738;21.652;2022-09-12T09:26:00;11.19;99.23
69162;DHT22;56269;51.738;21.652;2022-09-12T09:28:50;11.16;98.63
69162;DHT22;56269;51.738;21.652;2022-09-12T09:31:21;11.14;99.39
69162;DHT22;56269;51.738;21.652;2022-09-12T09:33:50;11.12;99.13
69162;DHT22;56269;51.738;21.652;2022-09-12T09:36:20;11.18;98.56
69162;DHT22;56269;51.738;21.652;2022-09-12T09:39:04;11.29;98.60
69162;DHT22;56269;51.738;21.652;2022-09-12T09:44:16;11.42;98.19
69162;DHT22;56269;51.738;21.652;2022-09-12T09:46:42;11.39;97.45
69162;DHT22;56269;51.738;21.652;2022-09-12T09:49:11;11.56;97.63
69162;DHT22;56269;51.738;21.652;2022-09-12T09:51:40;11.56;97.28
69162;DHT22;56269;51.738;21.652;2022-09-12T09:54:20;11.66;98.32
69162;DHT22;56269;51.738;21.652;2022-09-12T09:56:48;11.73;97.14
69162;DHT22;56269;51.738;21.652;2022-09-12T09:59:17;11.67;96.23
69162;DHT22;56269;51.738;21.652;2022-09-12T10:01:52;11.67;97.66
69162;DHT22;56269;51.738;21.652;2022-09-12T10:04:24;11.73;97.38
69162;DHT22;56269;51.738;21.652;2022-09-12T10:06:55;11.70;97.33
69162;DHT22;56269;51.738;21.652;2022-09-12T10:09:33;11.52;97.43
69162;DHT22;56269;51.738;21.652;2022-09-12T10:12:18;11.62;98.03
69162;DHT22;56269;51.738;21.652;2022-09-12T10:14:55;11.55;97.48
69162;DHT22;56269;51.738;21.652;2022-09-12T10:17:30;11.47;97.63
69162;DHT22;56269;51.738;21.652;2022-09-12T10:19:57;11.45;97.76
69162;DHT22;56269;51.738;21.652;2022-09-12T10:22:26;11.42;98.05
69162;DHT22;56269;51.738;21.652;2022-09-12T10:24:58;11.45;97.74
69162;DHT22;56269;51.738;21.652;2022-09-12T10:27:27;11.52;98.47
69162;DHT22;56269;51.738;21.652;2022-09-12T10:30:05;11.52;98.03
69162;DHT22;56269;51.738;21.652;2022-09-12T10:32:42;11.55;97.41
69162;DHT22;56269;51.738;21.652;2022-09-12T10:35:26;11.59;97.57
69162;DHT22;56269;51.738;21.652;2022-09-12T10:37:59;11.63;96.90
69162;DHT22;56269;51.738;21.652;2022-09-12T10:40:29;11.56;96.98
69162;DHT22;56269;51.738;21.652;2022-09-12T10:42:58;11.51;96.85
69162;DHT22;56269;51.738;21.652;2022-09-12T10:45:28;11.56;97.23
69162;DHT22;56269;51.738;21.652;2022-09-12T10:48:00;11.66;97.28
69162;DHT22;56269;51.738;21.652;2022-09-12T10:53:21;11.77;96.98
69162;DHT22;56269;51.738;21.652;2022-09-12T10:56:12;11.77;95.89
69162;DHT22;56269;51.738;21.652;2022-09-12T11:04:05;11.72;97.06
69162;DHT22;56269;51.738;21.652;2022-09-12T11:07:12;11.72;97.38
69162;DHT22;56269;51.738;21.652;2022-09-12T11:12:29;11.76;97.08
69162;DHT22;56269;51.738;21.652;2022-09-12T11:21:10;11.80;96.73
69162;DHT22;56269;51.738;21.652;2022-09-12T11:34:10;11.94;96.01
69162;DHT22;56269;51.738;21.652;2022-09-12T11:39:43;11.94;97.04
69162;DHT22;56269;51.738;21.652;2022-09-12T11:42:16;11.95;96.33
69162;DHT22;56269;51.738;21.652;2022-09-12T11:44:50;11.94;95.79
69162;DHT22;56269;51.738;21.652;2022-09-12T11:47:18;12.00;96.29
69162;DHT22;56269;51.738;21.652;2022-09-12T11:49:49;12.12;96.17
69162;DHT22;56269;51.738;21.652;2022-09-12T11:52:19;12.07;95.46
69162;DHT22;56269;51.738;21.652;2022-09-12T11:54:51;12.13;95.84
69162;DHT22;56269;51.738;21.652;2022-09-12T11:57:32;12.18;95.76
69162;DHT22;56269;51.738;21.652;2022-09-12T12:00:06;12.18;96.33
69162;DHT22;56269;51.738;21.652;2022-09-12T12:05:44;12.13;95.50
69162;DHT22;56269;51.738;21.652;2022-09-12T12:08:14;12.23;95.97
69162;DHT22;56269;51.738;21.652;2022-09-12T12:10:58;12.28;95.29
69162;DHT22;56269;51.738;21.652;2022-09-12T12:16:28;12.37;95.41
69162;DHT22;56269;51.738;21.652;2022-09-12T12:19:00;12.37;95.15
69162;DHT22;56269;51.738;21.652;2022-09-12T12:36:56;13.35;90.20
69162;DHT22;56269;51.738;21.652;2022-09-12T12:41:59;13.60;90.92
69162;DHT22;56269;51.738;21.652;2022-09-12T12:47:26;13.81;90.16
69162;DHT22;56269;51.738;21.652;2022-09-12T12:50:05;13.94;89.72
69162;DHT22;56269;51.738;21.652;2022-09-12T12:52:45;13.79;89.30
69162;DHT22;56269;51.738;21.652;2022-09-12T12:55:35;13.54;89.79
69162;DHT22;56269;51.738;21.652;2022-09-12T12:58:21;13.44;90.09
69162;DHT22;56269;51.738;21.652;2022-09-12T13:03:35;13.36;89.97
69162;DHT22;56269;51.738;21.652;2022-09-12T13:06:05;13.35;90.71
69162;DHT22;56269;51.738;21.652;2022-09-12T13:08:33;13.33;90.01
69162;DHT22;56269;51.738;21.652;2022-09-12T13:16:34;13.17;91.82
69162;DHT22;56269;51.738;21.652;2022-09-12T13:19:12;13.09;91.95
69162;DHT22;56269;51.738;21.652;2022-09-12T13:21:56;13.12;92.33
69162;DHT22;56269;51.738;21.652;2022-09-12T13:24:22;13.09;91.84
69162;DHT22;56269;51.738;21.652;2022-09-12T13:26:49;13.12;91.41
69162;DHT22;56269;51.738;21.652;2022-09-12T13:29:16;13.19;91.47
69162;DHT22;56269;51.738;21.652;2022-09-12T13:31:45;13.28;91.86
69162;DHT22;56269;51.738;21.652;2022-09-12T13:34:18;13.30;91.56
69162;DHT22;56269;51.738;21.652;2022-09-12T13:45:22;13.15;92.02
69162;DHT22;56269;51.738;21.652;2022-09-12T13:47:51;13.17;90.84
69162;DHT22;56269;51.738;21.652;2022-09-12T13:50:22;13.20;91.85
69162;DHT22;56269;51.738;21.652;2022-09-12T13:52:56;13.05;91.34
69162;DHT22;56269;51.738;21.652;2022-09-12T13:55:29;13.00;91.74
69162;DHT22;56269;51.738;21.652;2022-09-12T13:58:15;12.91;92.07
69162;DHT22;56269;51.738;21.652;2022-09-12T14:00:42;12.88;92.20
69162;DHT22;56269;51.738;21.652;2022-09-12T14:03:37;12.88;92.43
69162;DHT22;56269;51.738;21.652;2022-09-12T14:06:22;12.93;92.33
69162;DHT22;56269;51.738;21.652;2022-09-12T14:08:49;12.91;92.89
69162;DHT22;56269;51.738;21.652;2022-09-12T14:11:23;12.88;93.09
69162;DHT22;56269;51.738;21.652;2022-09-12T14:13:50;12.82;92.86
69162;DHT22;56269;51.738;21.652;2022-09-12T14:16:18;12.79;93.51
69162;DHT22;56269;51.738;21.652;2022-09-12T14:18:46;12.72;94.06
69162;DHT22;56269;51.738;21.652;2022-09-12T14:21:25;12.71;94.11
69162;DHT22;56269;51.738;21.652;2022-09-12T14:23:55;12.64;93.45
69162;DHT22;56269;51.738;21.652;2022-09-12T14:26:23;12.58;94.47
69162;DHT22;56269;51.738;21.652;2022-09-12T14:28:49;12.54;93.87
69162;DHT22;56269;51.738;21.652;2022-09-12T14:31:24;12.51;94.35
69162;DHT22;56269;51.738;21.652;2022-09-12T14:33:55;12.46;95.07
69162;DHT22;56269;51.738;21.652;2022-09-12T14:36:26;12.42;94.62
69162;DHT22;56269;51.738;21.652;2022-09-12T14:39:01;12.40;95.14
69162;DHT22;56269;51.738;21.652;2022-09-12T14:41:31;12.40;95.22
69162;DHT22;56269;51.738;21.652;2022-09-12T14:43:59;12.38;94.85
69162;DHT22;56269;51.738;21.652;2022-09-12T14:48:57;12.41;95.28
69162;DHT22;56269;51.738;21.652;2022-09-12T14:51:34;12.40;95.46
69162;DHT22;56269;51.738;21.652;2022-09-12T14:54:02;12.41;95.44
69162;DHT22;56269;51.738;21.652;2022-09-12T14:56:40;12.44;95.59
69162;DHT22;56269;51.738;21.652;2022-09-12T15:04:43;12.44;95.64
69162;DHT22;56269;51.738;21.652;2022-09-12T15:07:33;12.41;95.75
69162;DHT22;56269;51.738;21.652;2022-09-12T15:10:22;12.40;96.63
69162;DHT22;56269;51.738;21.652;2022-09-12T15:15:37;12.38;96.76
69162;DHT22;56269;51.738;21.652;2022-09-12T15:18:04;12.35;96.33
69162;DHT22;56269;51.738;21.652;2022-09-12T15:20:32;12.34;96.87
69162;DHT22;56269;51.738;21.652;2022-09-12T15:22:58;12.31;97.56
69162;DHT22;56269;51.738;21.652;2022-09-12T15:25:24;12.25;98.20
69162;DHT22;56269;51.738;21.652;2022-09-12T15:27:51;12.25;98.41
69162;DHT22;56269;51.738;21.652;2022-09-12T15:30:18;12.17;98.31
69162;DHT22;56269;51.738;21.652;2022-09-12T15:32:45;12.14;98.52
69162;DHT22;56269;51.738;21.652;2022-09-12T15:35:16;12.07;98.95
69162;DHT22;56269;51.738;21.652;2022-09-12T15:37:42;11.98;99.35
69162;DHT22;56269;51.738;21.652;2022-09-12T15:40:10;11.95;99.80
69162;DHT22;56269;51.738;21.652;2022-09-12T15:42:36;11.95;99.99
69162;DHT22;56269;51.738;21.652;2022-09-12T15:45:16;11.91;99.99
69162;DHT22;56269;51.738;21.652;2022-09-12T15:47:43;11.90;99.99
69162;DHT22;56269;51.738;21.652;2022-09-12T15:50:09;11.86;99.99
69162;DHT22;56269;51.738;21.652;2022-09-12T15:52:36;11.84;99.99
69162;DHT22;56269;51.738;21.652;2022-09-12T15:55:04;11.84;99.99
69162;DHT22;56269;51.738;21.652;2022-09-12T15:57:30;11.84;99.99
69162;DHT22;56269;51.738;21.652;2022-09-12T15:59:56;11.82;99.99
69162;DHT22;56269;51.738;21.652;2022-09-12T16:02:22;11.79;99.99
69162;DHT22;56269;51.738;21.652;2022-09-12T16:04:48;11.83;99.99
69162;DHT22;56269;51.738;21.652;2022-09-12T16:07:16;11.82;99.99
69162;DHT22;56269;51.738;21.652;2022-09-12T16:09:42;11.79;99.99
69162;DHT22;56269;51.738;21.652;2022-09-12T16:12:08;11.76;99.99
69162;DHT22;56269;51.738;21.652;2022-09-12T16:14:34;11.73;99.99
69162;DHT22;56269;51.738;21.652;2022-09-12T16:17:01;11.72;99.99
69162;DHT22;56269;51.738;21.652;2022-09-12T16:19:27;11.70;99.99
69162;DHT22;56269;51.738;21.652;2022-09-12T16:21:53;11.70;99.99
69162;DHT22;56269;51.738;21.652;2022-09-12T16:24:19;11.69;99.99
69162;DHT22;56269;51.738;21.652;2022-09-12T16:26:45;11.66;99.99
69162;DHT22;56269;51.738;21.652;2022-09-12T16:29:12;11.69;99.99
69162;DHT22;56269;51.738;21.652;2022-09-12T16:31:39;11.63;99.99
69162;DHT22;56269;51.738;21.652;2022-09-12T16:34:06;11.63;99.99
69162;DHT22;56269;51.738;21.652;2022-09-12T16:36:32;11.62;99.99
69162;DHT22;56269;51.738;21.652;2022-09-12T16:38:58;11.62;99.99
69162;DHT22;56269;51.738;21.652;2022-09-12T16:41:24;11.61;99.99
69162;DHT22;56269;51.738;21.652;2022-09-12T16:43:51;11.55;99.99
69162;DHT22;56269;51.738;21.652;2022-09-12T16:46:23;11.52;99.99
69162;DHT22;56269;51.738;21.652;2022-09-12T16:48:51;11.53;99.99
69162;DHT22;56269;51.738;21.652;2022-09-12T16:51:23;11.52;99.99
69162;DHT22;56269;51.738;21.652;2022-09-12T16:53:51;11.52;99.99
69162;DHT22;56269;51.738;21.652;2022-09-12T16:56:18;11.51;99.99
69162;DHT22;56269;51.738;21.652;2022-09-12T16:58:45;11.47;99.99
69162;DHT22;56269;51.738;21.652;2022-09-12T17:01:14;11.43;99.99
69162;DHT22;56269;51.738;21.652;2022-09-12T17:03:41;11.39;99.99
69162;DHT22;56269;51.738;21.652;2022-09-12T17:06:12;11.40;99.99
69162;DHT22;56269;51.738;21.652;2022-09-12T17:08:42;11.39;99.99
69162;DHT22;56269;51.738;21.652;2022-09-12T17:11:11;11.39;99.99
69162;DHT22;56269;51.738;21.652;2022-09-12T17:13:38;11.38;99.99
69162;DHT22;56269;51.738;21.652;2022-09-12T17:16:09;11.42;99.99
69162;DHT22;56269;51.738;21.652;2022-09-12T17:18:39;11.39;99.99
69162;DHT22;56269;51.738;21.652;2022-09-12T17:21:07;11.35;99.99
69162;DHT22;56269;51.738;21.652;2022-09-12T17:23:33;11.38;99.99
69162;DHT22;56269;51.738;21.652;2022-09-12T17:25:59;11.39;99.99
69162;DHT22;56269;51.738;21.652;2022-09-12T17:28:25;11.35;99.99
69162;DHT22;56269;51.738;21.652;2022-09-12T17:31:11;11.36;99.99
69162;DHT22;56269;51.738;21.652;2022-09-12T17:33:38;11.35;99.99
69162;DHT22;56269;51.738;21.652;2022-09-12T17:36:10;11.40;99.99
69162;DHT22;56269;51.738;21.652;2022-09-12T17:38:37;11.42;99.99
69162;DHT22;56269;51.738;21.652;2022-09-12T17:41:12;11.42;99.99
69162;DHT22;56269;51.738;21.652;2022-09-12T17:43:50;11.42;99.99
69162;DHT22;56269;51.738;21.652;2022-09-12T17:46:21;11.39;99.99
69162;DHT22;56269;51.738;21.652;2022-09-12T17:48:55;11.42;99.99
69162;DHT22;56269;51.738;21.652;2022-09-12T17:51:24;11.42;99.99
69162;DHT22;56269;51.738;21.652;2022-09-12T17:54:04;11.42;99.99
69162;DHT22;56269;51.738;21.652;2022-09-12T17:56:32;11.39;99.99
69162;DHT22;56269;51.738;21.652;2022-09-12T17:58:59;11.36;99.99
69162;DHT22;56269;51.738;21.652;2022-09-12T18:01:26;11.36;99.99
69162;DHT22;56269;51.738;21.652;2022-09-12T18:04:11;11.31;99.99